sensor_id;sensor_type;location;lat;lon;timestamp;pressure;altitude;pressure_sealevel;temperature;humidity
2563;BME280;1291;51.420;6.970;2022-12-01T00:00:46;100928.22;;;22.05;27.80
2563;BME280;1291;51.420;6.970;2022-12-01T00:03:12;100925.66;;;21.94;28.20
2563;BME280;1291;51.420;6.970;2022-12-01T00:05:37;100936.00;;;22.37;27.64
2563;BME280;1291;51.420;6.970;2022-12-01T00:08:03;100926.03;;;22.67;27.00
2563;BME280;1291;51.420;6.970;2022-12-01T00:10:30;100933.94;;;20.89;29.71
2563;BME280;1291;51.420;6.970;2022-12-01T00:12:57;100933.09;;;20.69;30.45
2563;BME280;1291;51.420;6.970;2022-12-01T00:15:32;100928.00;;;22.40;28.04
2563;BME280;1291;51.420;6.970;2022-12-01T00:17:59;100920.19;;;22.28;27.85
2563;BME280;1291;51.420;6.970;2022-12-01T00:20:24;100922.03;;;22.09;28.32
2563;BME280;1291;51.420;6.970;2022-12-01T00:22:53;100922.53;;;20.77;30.38
2563;BME280;1291;51.420;6.970;2022-12-01T00:25:19;100925.00;;;21.40;29.35
2563;BME280;1291;51.420;6.970;2022-12-01T00:27:48;100919.91;;;20.63;30.81
2563;BME280;1291;51.420;6.970;2022-12-01T00:30:15;100925.19;;;20.77;30.49
2563;BME280;1291;51.420;6.970;2022-12-01T00:32:41;100924.19;;;21.22;30.16
2563;BME280;1291;51.420;6.970;2022-12-01T00:35:07;100926.91;;;20.88;30.43
2563;BME280;1291;51.420;6.970;2022-12-01T00:37:34;100925.13;;;20.98;29.78
2563;BME280;1291;51.420;6.970;2022-12-01T00:39:59;100924.91;;;21.67;29.14
2563;BME280;1291;51.420;6.970;2022-12-01T00:42:26;100920.75;;;20.89;29.97
2563;BME280;1291;51.420;6.970;2022-12-01T00:44:52;100924.09;;;21.59;29.28
2563;BME280;1291;51.420;6.970;2022-12-01T00:47:18;100923.38;;;20.32;31.58
2563;BME280;1291;51.420;6.970;2022-12-01T00:49:44;100925.69;;;21.91;28.66
2563;BME280;1291;51.420;6.970;2022-12-01T00:52:14;100925.88;;;21.42;29.09
2563;BME280;1291;51.420;6.970;2022-12-01T00:54:41;100933.97;;;20.96;29.79
2563;BME280;1291;51.420;6.970;2022-12-01T00:57:07;100929.53;;;21.01;30.26
2563;BME280;1291;51.420;6.970;2022-12-01T00:59:33;100936.53;;;21.20;29.80
2563;BME280;1291;51.420;6.970;2022-12-01T01:02:00;100933.06;;;20.26;31.40
2563;BME280;1291;51.420;6.970;2022-12-01T01:04:29;100932.19;;;20.58;31.16
2563;BME280;1291;51.420;6.970;2022-12-01T01:06:57;100926.88;;;21.07;29.90
2563;BME280;1291;51.420;6.970;2022-12-01T01:09:22;100935.69;;;20.98;30.55
2563;BME280;1291;51.420;6.970;2022-12-01T01:11:48;100935.69;;;20.38;31.19
2563;BME280;1291;51.420;6.970;2022-12-01T01:14:14;100936.53;;;21.20;29.64
2563;BME280;1291;51.420;6.970;2022-12-01T01:16:39;100933.03;;;20.10;30.96
2563;BME280;1291;51.420;6.970;2022-12-01T01:19:05;100940.97;;;20.47;31.08
2563;BME280;1291;51.420;6.970;2022-12-01T01:21:30;100933.09;;;20.66;30.12
2563;BME280;1291;51.420;6.970;2022-12-01T01:23:55;100934.81;;;20.42;31.47
2563;BME280;1291;51.420;6.970;2022-12-01T01:26:23;100940.06;;;20.21;31.13
2563;BME280;1291;51.420;6.970;2022-12-01T01:28:49;100934.00;;;23.51;28.17
2563;BME280;1291;51.420;6.970;2022-12-01T01:31:18;100923.72;;;26.65;22.42
2563;BME280;1291;51.420;6.970;2022-12-01T01:33:44;100937.00;;;25.90;22.88
2563;BME280;1291;51.420;6.970;2022-12-01T01:36:10;100934.81;;;25.69;23.29
2563;BME280;1291;51.420;6.970;2022-12-01T01:38:36;100935.50;;;26.55;22.06
2563;BME280;1291;51.420;6.970;2022-12-01T01:41:03;100944.44;;;25.74;22.87
2563;BME280;1291;51.420;6.970;2022-12-01T01:43:43;100944.44;;;25.74;22.60
2563;BME280;1291;51.420;6.970;2022-12-01T01:46:12;100946.09;;;25.38;22.90
2563;BME280;1291;51.420;6.970;2022-12-01T01:48:39;100945.78;;;26.70;22.06
2563;BME280;1291;51.420;6.970;2022-12-01T01:51:06;100954.59;;;25.55;23.12
2563;BME280;1291;51.420;6.970;2022-12-01T01:53:32;100953.28;;;25.33;23.23
2563;BME280;1291;51.420;6.970;2022-12-01T01:55:58;100951.00;;;26.75;21.76
2563;BME280;1291;51.420;6.970;2022-12-01T01:58:24;100955.66;;;25.89;22.65
2563;BME280;1291;51.420;6.970;2022-12-01T02:00:50;100948.78;;;27.25;21.20
2563;BME280;1291;51.420;6.970;2022-12-01T02:03:17;100943.03;;;26.37;22.09
2563;BME280;1291;51.420;6.970;2022-12-01T02:05:43;100949.88;;;27.49;20.45
2563;BME280;1291;51.420;6.970;2022-12-01T02:08:09;100941.41;;;27.65;20.60
2563;BME280;1291;51.420;6.970;2022-12-01T02:11:04;100947.47;;;27.07;21.17
2563;BME280;1291;51.420;6.970;2022-12-01T02:16:53;100945.81;;;28.25;19.93
2563;BME280;1291;51.420;6.970;2022-12-01T02:19:15;100946.28;;;26.85;21.04
2563;BME280;1291;51.420;6.970;2022-12-01T02:27:22;100940.31;;;27.09;21.11
2563;BME280;1291;51.420;6.970;2022-12-01T02:30:09;100933.69;;;26.55;21.62
2563;BME280;1291;51.420;6.970;2022-12-01T02:40:19;100938.19;;;25.35;23.18
2563;BME280;1291;51.420;6.970;2022-12-01T02:43:05;100937.31;;;25.76;22.75
2563;BME280;1291;51.420;6.970;2022-12-01T02:48:20;100935.72;;;27.47;20.54
2563;BME280;1291;51.420;6.970;2022-12-01T02:50:50;100942.47;;;25.84;22.52
2563;BME280;1291;51.420;6.970;2022-12-01T02:53:17;100939.25;;;26.09;22.24
2563;BME280;1291;51.420;6.970;2022-12-01T02:55:51;100940.84;;;26.17;22.45
2563;BME280;1291;51.420;6.970;2022-12-01T02:58:17;100933.78;;;27.52;20.58
2563;BME280;1291;51.420;6.970;2022-12-01T03:03:59;100942.84;;;25.23;22.97
2563;BME280;1291;51.420;6.970;2022-12-01T03:06:29;100932.63;;;26.64;21.20
2563;BME280;1291;51.420;6.970;2022-12-01T03:09:10;100940.69;;;27.28;20.43
2563;BME280;1291;51.420;6.970;2022-12-01T03:14:30;100937.69;;;26.00;21.56
2563;BME280;1291;51.420;6.970;2022-12-01T03:17:03;100940.13;;;26.47;21.34
2563;BME280;1291;51.420;6.970;2022-12-01T03:19:39;100944.53;;;26.12;21.94
2563;BME280;1291;51.420;6.970;2022-12-01T03:22:43;100935.06;;;27.06;20.57
2563;BME280;1291;51.420;6.970;2022-12-01T03:25:07;100935.63;;;27.50;19.70
2563;BME280;1291;51.420;6.970;2022-12-01T03:27:36;100930.44;;;28.32;19.01
2563;BME280;1291;51.420;6.970;2022-12-01T03:30:05;100939.56;;;27.37;19.93
2563;BME280;1291;51.420;6.970;2022-12-01T03:32:44;100936.81;;;26.38;21.47
2563;BME280;1291;51.420;6.970;2022-12-01T03:35:21;100951.81;;;25.61;22.24
2563;BME280;1291;51.420;6.970;2022-12-01T03:38:18;100946.59;;;27.07;20.55
2563;BME280;1291;51.420;6.970;2022-12-01T03:40:48;100947.16;;;26.49;21.08
2563;BME280;1291;51.420;6.970;2022-12-01T03:43:18;100940.94;;;26.50;21.01
2563;BME280;1291;51.420;6.970;2022-12-01T03:46:00;100941.03;;;27.14;20.35
2563;BME280;1291;51.420;6.970;2022-12-01T03:48:28;100948.72;;;26.94;20.64
2563;BME280;1291;51.420;6.970;2022-12-01T03:53:37;100950.22;;;27.37;20.07
2563;BME280;1291;51.420;6.970;2022-12-01T03:56:08;100952.50;;;27.18;20.10
2563;BME280;1291;51.420;6.970;2022-12-01T03:58:38;100957.63;;;26.58;21.36
2563;BME280;1291;51.420;6.970;2022-12-01T04:01:07;100959.66;;;25.68;22.03
2563;BME280;1291;51.420;6.970;2022-12-01T04:03:33;100950.28;;;27.65;20.03
2563;BME280;1291;51.420;6.970;2022-12-01T04:05:58;100952.91;;;29.05;18.10
2563;BME280;1291;51.420;6.970;2022-12-01T04:08:24;100947.19;;;28.09;19.15
2563;BME280;1291;51.420;6.970;2022-12-01T04:10:49;100956.31;;;27.09;20.11
2563;BME280;1291;51.420;6.970;2022-12-01T04:13:15;100957.00;;;27.16;20.00
2563;BME280;1291;51.420;6.970;2022-12-01T04:15:51;100953.53;;;27.12;19.87
2563;BME280;1291;51.420;6.970;2022-12-01T04:18:17;100954.69;;;26.69;20.93
2563;BME280;1291;51.420;6.970;2022-12-01T04:20:49;100949.88;;;26.48;21.43
2563;BME280;1291;51.420;6.970;2022-12-01T04:23:15;100953.63;;;27.42;19.90
2563;BME280;1291;51.420;6.970;2022-12-01T04:26:00;100949.91;;;27.77;19.53
2563;BME280;1291;51.420;6.970;2022-12-01T04:28:26;100951.72;;;26.07;20.62
2563;BME280;1291;51.420;6.970;2022-12-01T04:30:51;100954.66;;;27.68;19.58
2563;BME280;1291;51.420;6.970;2022-12-01T04:33:16;100943.50;;;27.83;19.46
2563;BME280;1291;51.420;6.970;2022-12-01T04:35:42;100947.75;;;28.20;18.75
2563;BME280;1291;51.420;6.970;2022-12-01T04:38:07;100941.03;;;28.35;18.64
2563;BME280;1291;51.420;6.970;2022-12-01T04:40:32;100944.78;;;25.12;22.08
2563;BME280;1291;51.420;6.970;2022-12-01T04:42:58;100946.75;;;25.91;21.02
2563;BME280;1291;51.420;6.970;2022-12-01T04:45:23;100942.59;;;24.88;22.78
2563;BME280;1291;51.420;6.970;2022-12-01T04:47:51;100945.88;;;25.00;22.48
2563;BME280;1291;51.420;6.970;2022-12-01T04:50:16;100934.41;;;27.62;20.10
2563;BME280;1291;51.420;6.970;2022-12-01T04:52:42;100938.84;;;26.27;20.95
2563;BME280;1291;51.420;6.970;2022-12-01T04:55:07;100945.63;;;26.40;21.16
2563;BME280;1291;51.420;6.970;2022-12-01T04:57:33;100949.13;;;25.16;22.65
2563;BME280;1291;51.420;6.970;2022-12-01T04:59:58;100942.50;;;26.57;21.33
2563;BME280;1291;51.420;6.970;2022-12-01T05:02:24;100945.66;;;26.01;21.46
2563;BME280;1291;51.420;6.970;2022-12-01T05:04:49;100940.44;;;27.67;19.67
2563;BME280;1291;51.420;6.970;2022-12-01T05:07:14;100939.88;;;27.25;20.26
2563;BME280;1291;51.420;6.970;2022-12-01T05:09:40;100941.75;;;26.16;21.16
2563;BME280;1291;51.420;6.970;2022-12-01T05:12:05;100936.44;;;26.52;21.11
2563;BME280;1291;51.420;6.970;2022-12-01T05:14:30;100942.69;;;27.18;20.52
2563;BME280;1291;51.420;6.970;2022-12-01T05:16:56;100936.06;;;26.68;20.70
2563;BME280;1291;51.420;6.970;2022-12-01T05:19:22;100937.03;;;26.65;20.73
2563;BME280;1291;51.420;6.970;2022-12-01T05:22:06;100936.19;;;26.63;20.47
2563;BME280;1291;51.420;6.970;2022-12-01T05:24:31;100943.81;;;26.05;21.23
2563;BME280;1291;51.420;6.970;2022-12-01T05:26:56;100938.75;;;27.35;19.71
2563;BME280;1291;51.420;6.970;2022-12-01T05:29:22;100938.97;;;26.60;20.84
2563;BME280;1291;51.420;6.970;2022-12-01T05:31:47;100949.16;;;26.03;21.32
2563;BME280;1291;51.420;6.970;2022-12-01T05:34:12;100946.59;;;25.57;22.43
2563;BME280;1291;51.420;6.970;2022-12-01T05:36:38;100947.09;;;25.74;21.74
2563;BME280;1291;51.420;6.970;2022-12-01T05:39:04;100944.13;;;26.99;20.46
2563;BME280;1291;51.420;6.970;2022-12-01T05:41:29;100941.88;;;26.48;20.68
2563;BME280;1291;51.420;6.970;2022-12-01T05:43:55;100947.34;;;25.17;22.42
2563;BME280;1291;51.420;6.970;2022-12-01T05:46:20;100941.66;;;27.26;19.94
2563;BME280;1291;51.420;6.970;2022-12-01T05:48:45;100944.22;;;25.43;21.82
2563;BME280;1291;51.420;6.970;2022-12-01T05:51:13;100951.34;;;26.23;20.54
2563;BME280;1291;51.420;6.970;2022-12-01T05:53:39;100951.22;;;26.28;20.73
2563;BME280;1291;51.420;6.970;2022-12-01T05:56:06;100959.28;;;24.96;22.47
2563;BME280;1291;51.420;6.970;2022-12-01T05:58:32;100960.47;;;25.70;21.65
2563;BME280;1291;51.420;6.970;2022-12-01T06:00:58;100959.38;;;26.20;20.93
2563;BME280;1291;51.420;6.970;2022-12-01T06:03:24;100958.78;;;25.23;21.95
2563;BME280;1291;51.420;6.970;2022-12-01T06:05:49;100967.66;;;26.46;20.76
2563;BME280;1291;51.420;6.970;2022-12-01T06:08:14;100959.84;;;26.75;20.00
2563;BME280;1291;51.420;6.970;2022-12-01T06:10:40;100965.81;;;26.12;20.77
2563;BME280;1291;51.420;6.970;2022-12-01T06:13:05;100965.03;;;27.14;19.63
2563;BME280;1291;51.420;6.970;2022-12-01T06:15:31;100971.97;;;27.21;19.49
2563;BME280;1291;51.420;6.970;2022-12-01T06:17:59;100971.53;;;27.04;19.81
2563;BME280;1291;51.420;6.970;2022-12-01T06:20:24;100961.34;;;27.53;19.65
2563;BME280;1291;51.420;6.970;2022-12-01T06:22:50;100970.31;;;27.50;19.40
2563;BME280;1291;51.420;6.970;2022-12-01T06:25:15;100972.50;;;25.47;21.68
2563;BME280;1291;51.420;6.970;2022-12-01T06:27:41;100969.00;;;27.95;19.08
2563;BME280;1291;51.420;6.970;2022-12-01T06:30:06;100979.16;;;26.10;20.28
2563;BME280;1291;51.420;6.970;2022-12-01T06:32:32;100984.41;;;26.13;21.07
2563;BME280;1291;51.420;6.970;2022-12-01T06:34:57;100972.63;;;26.25;20.56
2563;BME280;1291;51.420;6.970;2022-12-01T06:37:23;100982.94;;;25.56;21.37
2563;BME280;1291;51.420;6.970;2022-12-01T06:39:48;100979.59;;;27.35;19.67
2563;BME280;1291;51.420;6.970;2022-12-01T06:42:13;100985.44;;;26.08;21.12
2563;BME280;1291;51.420;6.970;2022-12-01T06:44:39;100988.47;;;25.45;21.70
2563;BME280;1291;51.420;6.970;2022-12-01T06:47:05;100979.19;;;25.67;21.75
2563;BME280;1291;51.420;6.970;2022-12-01T06:49:32;100983.84;;;27.42;19.51
2563;BME280;1291;51.420;6.970;2022-12-01T06:51:57;100988.97;;;26.07;21.03
2563;BME280;1291;51.420;6.970;2022-12-01T06:54:23;100993.00;;;25.84;21.48
2563;BME280;1291;51.420;6.970;2022-12-01T06:56:48;100985.97;;;26.22;20.67
2563;BME280;1291;51.420;6.970;2022-12-01T06:59:13;100978.34;;;27.49;19.64
2563;BME280;1291;51.420;6.970;2022-12-01T07:01:39;100982.91;;;26.78;19.88
2563;BME280;1291;51.420;6.970;2022-12-01T07:04:04;100985.56;;;26.01;21.16
2563;BME280;1291;51.420;6.970;2022-12-01T07:06:33;100993.78;;;25.91;21.23
2563;BME280;1291;51.420;6.970;2022-12-01T07:08:58;100988.22;;;26.40;20.61
2563;BME280;1291;51.420;6.970;2022-12-01T07:11:23;100991.72;;;26.42;20.54
2563;BME280;1291;51.420;6.970;2022-12-01T07:13:54;100985.69;;;26.34;20.34
2563;BME280;1291;51.420;6.970;2022-12-01T07:16:19;100996.41;;;25.92;21.34
2563;BME280;1291;51.420;6.970;2022-12-01T07:18:45;100998.16;;;27.06;19.98
2563;BME280;1291;51.420;6.970;2022-12-01T07:21:12;100994.41;;;26.41;20.34
2563;BME280;1291;51.420;6.970;2022-12-01T07:23:37;100998.94;;;26.75;20.30
2563;BME280;1291;51.420;6.970;2022-12-01T07:28:28;101005.69;;;25.70;21.62
2563;BME280;1291;51.420;6.970;2022-12-01T07:31:03;101010.63;;;24.95;22.12
2563;BME280;1291;51.420;6.970;2022-12-01T07:33:29;101006.47;;;24.80;22.66
2563;BME280;1291;51.420;6.970;2022-12-01T07:35:55;101003.09;;;25.21;22.05
2563;BME280;1291;51.420;6.970;2022-12-01T07:38:20;101002.84;;;24.85;22.35
2563;BME280;1291;51.420;6.970;2022-12-01T07:40:46;100996.44;;;26.30;20.66
2563;BME280;1291;51.420;6.970;2022-12-01T07:43:11;101002.81;;;25.82;21.06
2563;BME280;1291;51.420;6.970;2022-12-01T07:45:36;101000.78;;;24.45;23.08
2563;BME280;1291;51.420;6.970;2022-12-01T07:48:02;100995.94;;;26.51;20.45
2563;BME280;1291;51.420;6.970;2022-12-01T07:50:27;100997.63;;;27.27;19.45
2563;BME280;1291;51.420;6.970;2022-12-01T07:52:53;101002.97;;;27.26;19.72
2563;BME280;1291;51.420;6.970;2022-12-01T07:55:18;100997.97;;;26.40;20.53
2563;BME280;1291;51.420;6.970;2022-12-01T07:57:43;100996.19;;;25.58;21.35
2563;BME280;1291;51.420;6.970;2022-12-01T08:00:09;101001.81;;;26.28;20.85
2563;BME280;1291;51.420;6.970;2022-12-01T08:02:35;100996.78;;;27.23;19.52
2563;BME280;1291;51.420;6.970;2022-12-01T08:05:00;100997.81;;;27.52;19.55
2563;BME280;1291;51.420;6.970;2022-12-01T08:07:25;101008.25;;;25.76;21.54
2563;BME280;1291;51.420;6.970;2022-12-01T08:09:51;101004.19;;;27.12;19.93
2563;BME280;1291;51.420;6.970;2022-12-01T08:12:16;100997.59;;;27.60;19.13
2563;BME280;1291;51.420;6.970;2022-12-01T08:14:41;101009.88;;;26.64;20.53
2563;BME280;1291;51.420;6.970;2022-12-01T08:17:07;101011.53;;;25.87;21.14
2563;BME280;1291;51.420;6.970;2022-12-01T08:19:32;101021.22;;;24.98;22.28
2563;BME280;1291;51.420;6.970;2022-12-01T08:21:57;101014.13;;;28.03;18.92
2563;BME280;1291;51.420;6.970;2022-12-01T08:24:23;101012.91;;;27.52;19.21
2563;BME280;1291;51.420;6.970;2022-12-01T08:26:48;101026.56;;;26.32;20.66
2563;BME280;1291;51.420;6.970;2022-12-01T08:29:13;101025.03;;;24.81;22.29
2563;BME280;1291;51.420;6.970;2022-12-01T08:31:39;101026.38;;;26.78;20.00
2563;BME280;1291;51.420;6.970;2022-12-01T08:34:05;101025.25;;;26.89;20.10
2563;BME280;1291;51.420;6.970;2022-12-01T08:36:32;101025.97;;;25.30;21.60
2563;BME280;1291;51.420;6.970;2022-12-01T08:38:58;101027.91;;;26.89;19.84
2563;BME280;1291;51.420;6.970;2022-12-01T08:41:32;101027.63;;;27.67;19.43
2563;BME280;1291;51.420;6.970;2022-12-01T08:43:58;101040.28;;;27.60;19.01
2563;BME280;1291;51.420;6.970;2022-12-01T08:46:24;101033.34;;;25.62;21.71
2563;BME280;1291;51.420;6.970;2022-12-01T08:48:51;101041.41;;;26.03;20.80
2563;BME280;1291;51.420;6.970;2022-12-01T08:51:18;101042.59;;;25.88;21.22
2563;BME280;1291;51.420;6.970;2022-12-01T08:53:47;101036.84;;;25.16;22.35
2563;BME280;1291;51.420;6.970;2022-12-01T08:56:19;101028.03;;;25.13;22.10
2563;BME280;1291;51.420;6.970;2022-12-01T08:58:44;101033.25;;;25.67;21.15
2563;BME280;1291;51.420;6.970;2022-12-01T09:01:12;101035.09;;;24.61;22.49
2563;BME280;1291;51.420;6.970;2022-12-01T09:03:38;101037.53;;;26.57;20.57
2563;BME280;1291;51.420;6.970;2022-12-01T09:06:16;101040.06;;;25.80;21.46
2563;BME280;1291;51.420;6.970;2022-12-01T09:08:49;101037.56;;;25.28;21.97
2563;BME280;1291;51.420;6.970;2022-12-01T09:11:16;101039.56;;;25.13;22.32
2563;BME280;1291;51.420;6.970;2022-12-01T09:13:43;101039.56;;;26.07;21.12
2563;BME280;1291;51.420;6.970;2022-12-01T09:16:11;101040.34;;;25.18;22.01
2563;BME280;1291;51.420;6.970;2022-12-01T09:18:37;101041.66;;;24.35;23.26
2563;BME280;1291;51.420;6.970;2022-12-01T09:21:18;101045.13;;;25.49;22.08
2563;BME280;1291;51.420;6.970;2022-12-01T09:23:45;101041.53;;;26.37;20.72
2563;BME280;1291;51.420;6.970;2022-12-01T09:26:12;101050.19;;;23.94;23.69
2563;BME280;1291;51.420;6.970;2022-12-01T09:28:37;101044.06;;;26.43;20.65
2563;BME280;1291;51.420;6.970;2022-12-01T09:31:07;101047.06;;;25.41;21.88
2563;BME280;1291;51.420;6.970;2022-12-01T09:33:36;101053.66;;;25.67;21.79
2563;BME280;1291;51.420;6.970;2022-12-01T09:36:02;101058.31;;;25.55;21.63
2563;BME280;1291;51.420;6.970;2022-12-01T09:38:29;101058.81;;;25.74;21.57
2563;BME280;1291;51.420;6.970;2022-12-01T09:40:55;101047.41;;;26.91;20.11
2563;BME280;1291;51.420;6.970;2022-12-01T09:43:27;101052.47;;;26.25;21.39
2563;BME280;1291;51.420;6.970;2022-12-01T09:45:58;101049.63;;;25.89;21.66
2563;BME280;1291;51.420;6.970;2022-12-01T09:48:40;101048.56;;;25.04;22.36
2563;BME280;1291;51.420;6.970;2022-12-01T09:51:21;101049.72;;;25.86;21.92
2563;BME280;1291;51.420;6.970;2022-12-01T09:53:55;101048.47;;;26.06;21.42
2563;BME280;1291;51.420;6.970;2022-12-01T09:56:26;101052.81;;;25.64;22.03
2563;BME280;1291;51.420;6.970;2022-12-01T09:58:55;101045.09;;;26.75;20.79
2563;BME280;1291;51.420;6.970;2022-12-01T10:01:30;101042.59;;;26.69;20.87
2563;BME280;1291;51.420;6.970;2022-12-01T10:03:58;101047.44;;;27.25;19.87
2563;BME280;1291;51.420;6.970;2022-12-01T10:06:38;101044.00;;;27.54;19.72
2563;BME280;1291;51.420;6.970;2022-12-01T10:09:11;101052.00;;;25.59;22.02
2563;BME280;1291;51.420;6.970;2022-12-01T10:11:41;101046.91;;;24.38;23.31
2563;BME280;1291;51.420;6.970;2022-12-01T10:14:14;101042.69;;;24.25;23.43
2563;BME280;1291;51.420;6.970;2022-12-01T10:24:52;101036.16;;;25.55;21.67
2563;BME280;1291;51.420;6.970;2022-12-01T10:30:06;101033.50;;;24.51;23.09
2563;BME280;1291;51.420;6.970;2022-12-01T10:35:20;101024.13;;;24.25;23.28
2563;BME280;1291;51.420;6.970;2022-12-01T10:37:50;101024.81;;;25.47;21.73
2563;BME280;1291;51.420;6.970;2022-12-01T10:40:18;101028.78;;;25.68;21.37
2563;BME280;1291;51.420;6.970;2022-12-01T10:42:48;101020.25;;;23.82;23.48
2563;BME280;1291;51.420;6.970;2022-12-01T10:45:25;101024.09;;;25.37;22.13
2563;BME280;1291;51.420;6.970;2022-12-01T10:48:15;101016.03;;;26.66;20.15
2563;BME280;1291;51.420;6.970;2022-12-01T10:58:22;101020.88;;;25.16;22.19
2563;BME280;1291;51.420;6.970;2022-12-01T11:01:03;101018.94;;;24.75;22.17
2563;BME280;1291;51.420;6.970;2022-12-01T11:03:34;101026.72;;;25.83;20.17
2563;BME280;1291;51.420;6.970;2022-12-01T11:06:01;101016.94;;;25.84;20.95
2563;BME280;1291;51.420;6.970;2022-12-01T11:08:33;101019.34;;;25.98;20.25
2563;BME280;1291;51.420;6.970;2022-12-01T11:11:00;101021.00;;;26.03;20.79
2563;BME280;1291;51.420;6.970;2022-12-01T11:13:28;101022.59;;;26.11;20.60
2563;BME280;1291;51.420;6.970;2022-12-01T11:15:59;101026.19;;;26.10;20.33
2563;BME280;1291;51.420;6.970;2022-12-01T11:18:36;101014.22;;;24.94;21.74
2563;BME280;1291;51.420;6.970;2022-12-01T11:21:14;101015.72;;;25.57;20.70
2563;BME280;1291;51.420;6.970;2022-12-01T11:23:50;101017.78;;;25.86;20.18
2563;BME280;1291;51.420;6.970;2022-12-01T11:26:23;101012.09;;;26.04;20.03
2563;BME280;1291;51.420;6.970;2022-12-01T11:31:15;101011.34;;;25.99;19.99
2563;BME280;1291;51.420;6.970;2022-12-01T11:33:48;101007.03;;;27.40;18.44
2563;BME280;1291;51.420;6.970;2022-12-01T11:36:36;100999.72;;;27.47;18.15
2563;BME280;1291;51.420;6.970;2022-12-01T11:39:03;101002.63;;;27.38;17.99
2563;BME280;1291;51.420;6.970;2022-12-01T11:41:32;101001.94;;;26.97;18.61
2563;BME280;1291;51.420;6.970;2022-12-01T11:44:01;100999.69;;;26.81;18.68
2563;BME280;1291;51.420;6.970;2022-12-01T11:46:38;101011.00;;;27.22;18.90
2563;BME280;1291;51.420;6.970;2022-12-01T11:49:15;101004.44;;;27.69;17.84
2563;BME280;1291;51.420;6.970;2022-12-01T11:51:41;101001.47;;;26.79;18.72
2563;BME280;1291;51.420;6.970;2022-12-01T11:54:25;100998.31;;;27.65;17.78
2563;BME280;1291;51.420;6.970;2022-12-01T11:56:52;101002.19;;;25.69;20.28
2563;BME280;1291;51.420;6.970;2022-12-01T11:59:26;101001.19;;;26.17;19.40
2563;BME280;1291;51.420;6.970;2022-12-01T12:02:20;101003.44;;;27.41;18.38
2563;BME280;1291;51.420;6.970;2022-12-01T12:05:51;101001.38;;;26.47;19.16
2563;BME280;1291;51.420;6.970;2022-12-01T12:07:57;100995.84;;;27.26;18.19
2563;BME280;1291;51.420;6.970;2022-12-01T12:35:25;100982.16;;;25.95;19.58
2563;BME280;1291;51.420;6.970;2022-12-01T12:38:16;100988.13;;;25.64;19.69
2563;BME280;1291;51.420;6.970;2022-12-01T12:46:05;100976.53;;;26.09;19.63
2563;BME280;1291;51.420;6.970;2022-12-01T12:48:57;100966.19;;;27.99;17.32
2563;BME280;1291;51.420;6.970;2022-12-01T12:52:06;100970.59;;;26.72;19.04
2563;BME280;1291;51.420;6.970;2022-12-01T12:54:31;100971.59;;;26.31;19.56
2563;BME280;1291;51.420;6.970;2022-12-01T12:57:18;100967.50;;;26.16;19.13
2563;BME280;1291;51.420;6.970;2022-12-01T12:59:53;100963.97;;;26.87;18.39
2563;BME280;1291;51.420;6.970;2022-12-01T13:02:34;100965.47;;;26.65;18.68
2563;BME280;1291;51.420;6.970;2022-12-01T13:05:11;100963.84;;;26.56;18.74
2563;BME280;1291;51.420;6.970;2022-12-01T13:07:52;100962.56;;;27.41;18.04
2563;BME280;1291;51.420;6.970;2022-12-01T13:10:34;100956.81;;;27.22;18.58
2563;BME280;1291;51.420;6.970;2022-12-01T13:15:47;100960.31;;;26.91;18.46
2563;BME280;1291;51.420;6.970;2022-12-01T13:21:02;100957.34;;;26.69;18.84
2563;BME280;1291;51.420;6.970;2022-12-01T13:23:28;100954.38;;;26.44;19.28
2563;BME280;1291;51.420;6.970;2022-12-01T13:25:56;100957.34;;;26.69;18.78
2563;BME280;1291;51.420;6.970;2022-12-01T13:28:26;100953.47;;;27.15;18.27
2563;BME280;1291;51.420;6.970;2022-12-01T13:31:09;100953.94;;;26.97;18.69
2563;BME280;1291;51.420;6.970;2022-12-01T13:33:36;100949.50;;;26.27;19.13
2563;BME280;1291;51.420;6.970;2022-12-01T13:36:08;100948.06;;;26.48;18.81
2563;BME280;1291;51.420;6.970;2022-12-01T13:38:34;100942.75;;;25.26;20.15
2563;BME280;1291;51.420;6.970;2022-12-01T13:41:37;100945.84;;;27.01;18.36
2563;BME280;1291;51.420;6.970;2022-12-01T13:49:42;100937.97;;;26.27;18.67
2563;BME280;1291;51.420;6.970;2022-12-01T13:52:24;100935.88;;;25.60;19.58
2563;BME280;1291;51.420;6.970;2022-12-01T14:08:32;100932.31;;;26.40;18.54
2563;BME280;1291;51.420;6.970;2022-12-01T14:11:05;100937.00;;;25.48;19.80
2563;BME280;1291;51.420;6.970;2022-12-01T14:13:44;100940.53;;;25.92;19.44
2563;BME280;1291;51.420;6.970;2022-12-01T14:16:10;100933.66;;;26.21;18.58
2563;BME280;1291;51.420;6.970;2022-12-01T14:18:41;100935.50;;;26.19;18.63
2563;BME280;1291;51.420;6.970;2022-12-01T14:21:12;100936.81;;;25.12;19.79
2563;BME280;1291;51.420;6.970;2022-12-01T14:23:58;100945.78;;;25.53;19.15
2563;BME280;1291;51.420;6.970;2022-12-01T14:26:26;100941.69;;;25.37;19.77
2563;BME280;1291;51.420;6.970;2022-12-01T14:36:53;100955.56;;;25.03;20.48
2563;BME280;1291;51.420;6.970;2022-12-01T14:39:34;100946.63;;;24.01;21.25
2563;BME280;1291;51.420;6.970;2022-12-01T14:42:31;100944.75;;;25.15;20.40
2563;BME280;1291;51.420;6.970;2022-12-01T14:45:21;100944.63;;;26.80;18.45
2563;BME280;1291;51.420;6.970;2022-12-01T14:48:01;100941.38;;;25.94;19.34
2563;BME280;1291;51.420;6.970;2022-12-01T14:50:47;100942.09;;;26.01;19.37
2563;BME280;1291;51.420;6.970;2022-12-01T14:53:22;100943.00;;;26.01;19.17
2563;BME280;1291;51.420;6.970;2022-12-01T14:55:56;100938.50;;;26.41;18.64
2563;BME280;1291;51.420;6.970;2022-12-01T14:58:29;100937.66;;;26.39;18.75
2563;BME280;1291;51.420;6.970;2022-12-01T15:01:02;100947.44;;;25.59;19.53
2563;BME280;1291;51.420;6.970;2022-12-01T15:03:55;100950.16;;;25.98;19.42
2563;BME280;1291;51.420;6.970;2022-12-01T15:06:23;100944.97;;;25.50;19.68
2563;BME280;1291;51.420;6.970;2022-12-01T15:09:12;100935.78;;;25.66;19.27
2563;BME280;1291;51.420;6.970;2022-12-01T15:11:48;100933.84;;;25.71;19.26
2563;BME280;1291;51.420;6.970;2022-12-01T15:14:38;100925.06;;;24.77;20.46
2563;BME280;1291;51.420;6.970;2022-12-01T15:17:27;100936.56;;;25.28;19.90
2563;BME280;1291;51.420;6.970;2022-12-01T15:19:55;100922.69;;;25.09;19.69
2563;BME280;1291;51.420;6.970;2022-12-01T15:22:23;100934.03;;;25.18;20.07